createdAt,value
2023-08-11T00:03:44.618Z,98839.47
2023-08-11T00:08:50.165Z,98834.41
2023-08-11T00:13:55.298Z,98825.75
2023-08-11T00:18:59.922Z,98833.44
2023-08-11T00:24:06.992Z,98825.44
2023-08-11T00:29:12.591Z,98823.47
2023-08-11T00:34:17.328Z,98823.97
2023-08-11T00:39:23.460Z,98823.97
2023-08-11T00:44:28.333Z,98827.06
2023-08-11T00:49:32.545Z,98825.75
2023-08-11T00:54:39.070Z,98820.34
2023-08-11T00:59:44.061Z,98814.84
2023-08-11T01:04:49.347Z,98815.63
2023-08-11T01:10:07.848Z,98821.84
2023-08-11T01:15:21.926Z,98822.34
2023-08-11T01:20:27.408Z,98820.22
2023-08-11T01:25:34.630Z,98818.91
2023-08-11T01:30:39.422Z,98825.13
2023-08-11T01:35:43.711Z,98832.13
2023-08-11T01:40:51.405Z,98827.88
2023-08-11T01:45:57.973Z,98836.53
2023-08-11T01:51:02.409Z,98826.56
2023-08-11T01:56:08.552Z,98823.75
2023-08-11T02:01:14.364Z,98822.13
2023-08-11T02:06:18.718Z,98818.53
2023-08-11T02:11:24.319Z,98810.38
2023-08-11T02:16:28.610Z,98809.38
2023-08-11T02:21:33.061Z,98823.09
2023-08-11T02:26:39.432Z,98822.94
2023-08-11T02:31:43.588Z,98823.75
2023-08-11T02:36:48.382Z,98821.13
2023-08-11T02:41:53.929Z,98825.38
2023-08-11T02:46:58.495Z,98821.13
2023-08-11T02:52:02.860Z,98827.47
2023-08-11T02:57:08.903Z,98834.31
2023-08-11T03:02:13.146Z,98833.81
2023-08-11T03:07:18.464Z,98846.53
2023-08-11T03:12:24.237Z,98849.47
2023-08-11T03:17:29.618Z,98847.13
2023-08-11T03:22:34.078Z,98848.13
2023-08-11T03:27:43.860Z,98851.56
2023-08-11T03:32:54.535Z,98846.34
2023-08-11T03:38:07.628Z,98852.34
2023-08-11T03:43:14.187Z,98854.00
2023-08-11T03:48:18.758Z,98852.88
2023-08-11T03:53:23.906Z,98856.97
2023-08-11T03:58:30.964Z,98860.72
2023-08-11T04:03:35.659Z,98852.72
2023-08-11T04:08:40.051Z,98855.69
2023-08-11T04:13:45.770Z,98852.47
2023-08-11T04:18:50.002Z,98857.69
2023-08-11T04:23:54.625Z,98851.19
2023-08-11T04:29:02.797Z,98861.31
2023-08-11T04:34:07.547Z,98859.88
2023-08-11T04:39:12.180Z,98872.31
2023-08-11T04:44:18.479Z,98872.31
2023-08-11T04:49:23.113Z,98865.25
2023-08-11T04:54:27.736Z,98879.97
2023-08-11T04:59:34.657Z,98884.22
2023-08-11T05:04:39.955Z,98893.34
2023-08-11T05:09:45.162Z,98891.16
2023-08-11T05:14:50.900Z,98891.56
2023-08-11T05:19:55.262Z,98904.72
2023-08-11T05:24:59.674Z,98904.47
2023-08-11T05:30:09.554Z,98906.97
2023-08-11T05:35:14.663Z,98904.22
2023-08-11T05:40:19.014Z,98895.50
2023-08-11T05:45:24.779Z,98903.81
2023-08-11T05:50:28.932Z,98914.06
2023-08-11T05:55:33.286Z,98900.34
2023-08-11T06:00:39.243Z,98906.31
2023-08-11T06:05:43.899Z,98913.53
2023-08-11T06:10:48.239Z,98910.84
2023-08-11T06:15:54.216Z,98914.56
2023-08-11T06:20:58.805Z,98915.25
2023-08-11T06:26:03.509Z,98911.63
2023-08-11T06:31:11.745Z,98924.41
2023-08-11T06:36:16.450Z,98925.66
2023-08-11T06:41:20.905Z,98934.34
2023-08-11T06:46:26.628Z,98944.59
2023-08-11T06:51:30.862Z,98931.66
2023-08-11T06:56:35.890Z,98936.09
2023-08-11T07:01:42.230Z,98946.88
2023-08-11T07:06:47.173Z,98948.75
2023-08-11T07:11:51.316Z,98939.59
2023-08-11T07:16:56.851Z,98952.97
2023-08-11T07:22:01.059Z,98940.78
2023-08-11T07:27:05.788Z,98952.13
2023-08-11T07:32:12.594Z,98945.38
2023-08-11T07:37:17.128Z,98950.56
2023-08-11T07:42:21.363Z,98956.56
2023-08-11T07:47:28.206Z,98963.69
2023-08-11T07:52:32.835Z,98968.91
2023-08-11T07:57:37.423Z,98966.97
2023-08-11T08:02:43.203Z,98960.97
2023-08-11T08:07:48.308Z,98962.78
2023-08-11T08:12:53.432Z,98956.25
2023-08-11T08:17:59.341Z,98970.50
2023-08-11T08:23:04.387Z,98968.06
2023-08-11T08:28:09.195Z,98972.88
2023-08-11T08:33:14.818Z,98970.00
2023-08-11T08:38:19.123Z,98969.81
2023-08-11T08:43:23.679Z,98971.66
2023-08-11T08:48:40.977Z,98966.94
2023-08-11T08:53:45.804Z,98977.19
2023-08-11T08:58:50.326Z,98977.47
2023-08-11T09:03:56.355Z,98972.59
2023-08-11T09:09:01.296Z,98976.16
2023-08-11T09:14:05.788Z,98969.19
2023-08-11T09:19:14.433Z,98974.94
2023-08-11T09:24:18.607Z,98977.50
2023-08-11T09:29:22.990Z,98973.38
2023-08-11T09:34:29.081Z,98968.56
2023-08-11T09:39:33.921Z,98971.38
2023-08-11T09:44:40.086Z,98966.06
2023-08-11T09:49:45.631Z,98969.81
2023-08-11T09:54:52.293Z,98965.84
2023-08-11T09:59:59.120Z,98958.00
2023-08-11T10:05:09.477Z,98965.50
2023-08-11T10:10:18.695Z,98969.44
2023-08-11T10:15:27.953Z,98959.25
2023-08-11T10:20:34.789Z,98969.41
2023-08-11T10:25:39.873Z,98971.03
2023-08-11T10:30:44.363Z,98966.59
2023-08-11T10:35:54.653Z,98962.69
2023-08-11T10:41:02.520Z,98943.31
2023-08-11T10:46:25.439Z,98951.41
2023-08-11T10:51:35.243Z,98957.72
2023-08-11T10:56:42.162Z,98955.72
2023-08-11T11:01:51.799Z,98956.47
2023-08-11T11:07:05.049Z,98946.69
2023-08-11T11:12:10.147Z,98959.28
2023-08-11T11:17:16.115Z,98957.91
2023-08-11T11:22:23.055Z,98965.97
2023-08-11T11:27:27.598Z,98968.63
2023-08-11T11:32:31.810Z,98958.38
2023-08-11T11:37:39.057Z,98966.06
2023-08-11T11:42:44.127Z,98970.59
2023-08-11T11:47:48.890Z,98964.66
2023-08-11T11:52:55.630Z,98953.63
2023-08-11T11:58:00.211Z,98952.97
2023-08-11T12:03:06.220Z,98952.09
2023-08-11T12:08:29.547Z,98965.88
2023-08-11T12:13:33.986Z,98954.84
2023-08-11T12:18:39.942Z,98957.50
2023-08-11T12:23:45.407Z,98959.44
2023-08-11T12:28:49.808Z,98953.28
2023-08-11T12:33:54.242Z,98954.31
2023-08-11T12:39:00.196Z,98953.69
2023-08-11T12:44:04.615Z,98945.56
2023-08-11T12:49:10.690Z,98951.19
2023-08-11T12:54:18.389Z,98957.16
2023-08-11T12:59:22.902Z,98963.41
2023-08-11T13:04:27.212Z,98957.19
2023-08-11T13:09:32.871Z,98962.63
2023-08-11T13:14:37.102Z,98963.88
2023-08-11T13:19:41.685Z,98957.75
2023-08-11T13:24:47.670Z,98949.00
2023-08-11T13:29:52.690Z,98947.56
2023-08-11T13:34:57.261Z,98956.66
2023-08-11T13:40:03.375Z,98947.19
2023-08-11T13:45:09.113Z,98942.69
2023-08-11T13:50:13.272Z,98936.97
2023-08-11T13:55:19.416Z,98947.00
2023-08-11T14:00:24.428Z,98938.69
2023-08-11T14:05:30.492Z,98942.38
2023-08-11T14:10:36.282Z,98937.88
2023-08-11T14:15:40.842Z,98948.66
2023-08-11T14:20:45.375Z,98939.44
2023-08-11T14:25:52.891Z,98936.34
2023-08-11T14:30:57.217Z,98940.97
2023-08-11T14:36:04.029Z,98944.94
2023-08-11T14:41:18.687Z,98933.91
2023-08-11T14:46:22.904Z,98928.22
2023-08-11T14:51:27.445Z,98930.31
2023-08-11T14:56:33.296Z,98924.69
2023-08-11T15:01:37.506Z,98923.72
2023-08-11T15:06:41.982Z,98919.38
2023-08-11T15:11:48.603Z,98918.56
2023-08-11T15:16:53.085Z,98913.41
2023-08-11T15:21:57.306Z,98910.16
2023-08-11T15:27:03.090Z,98910.53
2023-08-11T15:32:07.748Z,98913.22
2023-08-11T15:37:12.474Z,98908.75
2023-08-11T15:42:18.374Z,98911.06
2023-08-11T15:47:22.940Z,98914.53
2023-08-11T15:52:27.482Z,98917.16
2023-08-11T15:57:32.994Z,98901.66
2023-08-11T16:02:37.818Z,98901.47
2023-08-11T16:07:42.241Z,98872.41
2023-08-11T16:12:47.899Z,98879.44
2023-08-11T16:17:54.799Z,98890.66
2023-08-11T16:22:59.047Z,98882.53
2023-08-11T16:28:05.428Z,98884.75
2023-08-11T16:33:09.641Z,98883.69
2023-08-11T16:38:14.144Z,98886.31
2023-08-11T16:43:20.144Z,98880.03
2023-08-11T16:48:24.395Z,98883.25
2023-08-11T16:53:28.761Z,98881.59
2023-08-11T16:58:34.295Z,98890.28
2023-08-11T17:03:38.729Z,98892.63
2023-08-11T17:08:43.152Z,98892.72
2023-08-11T17:13:49.431Z,98902.00
2023-08-11T17:18:53.810Z,98902.75
2023-08-11T17:23:57.858Z,98906.06
2023-08-11T17:29:03.260Z,98898.72
2023-08-11T17:34:07.331Z,98908.47
2023-08-11T17:39:12.906Z,98896.94
2023-08-11T17:44:18.745Z,98913.72
2023-08-11T17:49:23.022Z,98901.25
2023-08-11T17:54:27.330Z,98912.91
2023-08-11T17:59:32.932Z,98905.72
2023-08-11T18:04:36.950Z,98905.97
2023-08-11T18:09:41.573Z,98916.56
2023-08-11T18:14:55.903Z,98916.22
2023-08-11T18:19:59.801Z,98921.72
2023-08-11T18:25:03.902Z,98929.22
2023-08-11T18:30:10.974Z,98930.63
2023-08-11T18:35:14.866Z,98927.13
2023-08-11T18:40:18.906Z,98937.25
2023-08-11T18:45:25.206Z,98933.94
2023-08-11T18:50:29.132Z,98934.50
2023-08-11T18:55:33.748Z,98950.91
2023-08-11T19:00:40.432Z,98942.31
2023-08-11T19:05:44.614Z,98937.34
2023-08-11T19:10:49.011Z,98944.19
2023-08-11T19:15:54.557Z,98949.22
2023-08-11T19:20:59.229Z,98948.78
2023-08-11T19:26:03.313Z,98944.59
2023-08-11T19:31:08.815Z,98946.16
2023-08-11T19:36:12.854Z,98945.91
2023-08-11T19:41:16.999Z,98955.81
2023-08-11T19:46:22.611Z,98953.97
2023-08-11T19:51:27.033Z,98954.81
2023-08-11T19:56:32.092Z,98949.88
2023-08-11T20:01:37.574Z,98951.03
2023-08-11T20:06:41.892Z,98951.22
2023-08-11T20:11:45.923Z,98950.31
2023-08-11T20:16:52.176Z,98946.97
2023-08-11T20:21:56.672Z,98955.19
2023-08-11T20:27:01.119Z,98950.69
2023-08-11T20:32:07.538Z,98957.66
2023-08-11T20:37:11.782Z,98958.50
2023-08-11T20:42:16.087Z,98964.25
2023-08-11T20:47:21.881Z,98957.25
2023-08-11T20:52:26.393Z,98964.88
2023-08-11T20:57:30.514Z,98976.69
2023-08-11T21:02:35.796Z,98976.22
2023-08-11T21:07:39.750Z,98962.75
2023-08-11T21:12:43.795Z,98959.66
2023-08-11T21:17:49.324Z,98962.56
2023-08-11T21:22:53.680Z,98967.19
2023-08-11T21:27:57.854Z,98962.28
2023-08-11T21:33:03.161Z,98954.56
2023-08-11T21:38:07.665Z,98954.09
2023-08-11T21:43:14.478Z,98959.00
2023-08-11T21:48:21.534Z,98955.19
2023-08-11T21:53:25.611Z,98949.84
2023-08-11T21:58:29.921Z,98947.13
2023-08-11T22:03:35.145Z,98946.13
2023-08-11T22:08:39.299Z,98954.06
2023-08-11T22:13:43.227Z,98958.41
2023-08-11T22:18:48.500Z,98949.25
2023-08-11T22:23:52.581Z,98951.59
2023-08-11T22:28:56.821Z,98951.25
2023-08-11T22:34:02.233Z,98949.59
2023-08-11T22:39:06.772Z,98941.91
2023-08-11T22:44:10.872Z,98945.38
2023-08-11T22:49:16.531Z,98941.69
2023-08-11T22:54:20.620Z,98935.66
2023-08-11T22:59:24.876Z,98938.13
2023-08-11T23:04:30.164Z,98941.78
2023-08-11T23:09:34.258Z,98934.44
2023-08-11T23:14:38.336Z,98929.56
2023-08-11T23:19:43.827Z,98931.03
2023-08-11T23:24:48.133Z,98921.03
2023-08-11T23:29:52.170Z,98922.09
2023-08-11T23:34:57.847Z,98915.91
2023-08-11T23:40:01.847Z,98913.47
2023-08-11T23:45:07.793Z,98913.81
2023-08-11T23:50:13.600Z,98914.50
2023-08-11T23:55:17.757Z,98909.31
